sensor_id;sensor_type;location;lat;lon;timestamp;P1;durP1;ratioP1;P2;durP2;ratioP2
13327;SDS011;6733;51.044;3.746;2024-02-23T00:01:49;3.83;;;1.87;;
13327;SDS011;6733;51.044;3.746;2024-02-23T00:04:16;5.50;;;1.70;;
13327;SDS011;6733;51.044;3.746;2024-02-23T00:06:44;4.63;;;1.80;;
13327;SDS011;6733;51.044;3.746;2024-02-23T00:09:10;5.17;;;1.80;;
13327;SDS011;6733;51.044;3.746;2024-02-23T00:11:39;4.47;;;1.70;;
13327;SDS011;6733;51.044;3.746;2024-02-23T00:14:07;6.23;;;2.00;;
13327;SDS011;6733;51.044;3.746;2024-02-23T00:16:37;5.20;;;1.60;;
13327;SDS011;6733;51.044;3.746;2024-02-23T00:19:09;4.23;;;1.50;;
13327;SDS011;6733;51.044;3.746;2024-02-23T00:21:38;6.77;;;1.63;;
13327;SDS011;6733;51.044;3.746;2024-02-23T00:24:05;6.13;;;1.70;;
13327;SDS011;6733;51.044;3.746;2024-02-23T00:26:31;6.13;;;1.77;;
13327;SDS011;6733;51.044;3.746;2024-02-23T00:28:58;7.13;;;1.97;;
13327;SDS011;6733;51.044;3.746;2024-02-23T00:31:24;4.77;;;1.57;;
13327;SDS011;6733;51.044;3.746;2024-02-23T00:33:50;10.67;;;1.70;;
13327;SDS011;6733;51.044;3.746;2024-02-23T00:36:16;5.70;;;1.80;;
13327;SDS011;6733;51.044;3.746;2024-02-23T00:38:42;6.77;;;1.77;;
13327;SDS011;6733;51.044;3.746;2024-02-23T00:41:08;5.17;;;1.43;;
13327;SDS011;6733;51.044;3.746;2024-02-23T00:43:37;4.90;;;1.30;;
13327;SDS011;6733;51.044;3.746;2024-02-23T00:46:05;3.47;;;1.00;;
13327;SDS011;6733;51.044;3.746;2024-02-23T00:48:31;3.40;;;1.20;;
13327;SDS011;6733;51.044;3.746;2024-02-23T00:50:57;2.87;;;1.00;;
13327;SDS011;6733;51.044;3.746;2024-02-23T00:53:23;4.20;;;1.50;;
13327;SDS011;6733;51.044;3.746;2024-02-23T00:55:49;3.03;;;1.17;;
13327;SDS011;6733;51.044;3.746;2024-02-23T00:58:15;4.87;;;1.53;;
13327;SDS011;6733;51.044;3.746;2024-02-23T01:00:41;6.13;;;1.33;;
13327;SDS011;6733;51.044;3.746;2024-02-23T01:03:07;4.30;;;1.70;;
13327;SDS011;6733;51.044;3.746;2024-02-23T01:05:33;6.07;;;1.40;;
13327;SDS011;6733;51.044;3.746;2024-02-23T01:07:59;6.03;;;1.50;;
13327;SDS011;6733;51.044;3.746;2024-02-23T01:10:25;6.17;;;1.50;;
13327;SDS011;6733;51.044;3.746;2024-02-23T01:12:52;5.33;;;1.70;;
13327;SDS011;6733;51.044;3.746;2024-02-23T01:15:18;4.83;;;1.83;;
13327;SDS011;6733;51.044;3.746;2024-02-23T01:17:44;4.83;;;1.70;;
13327;SDS011;6733;51.044;3.746;2024-02-23T01:20:10;8.17;;;2.20;;
13327;SDS011;6733;51.044;3.746;2024-02-23T01:22:36;5.77;;;1.47;;
13327;SDS011;6733;51.044;3.746;2024-02-23T01:25:02;3.33;;;1.50;;
13327;SDS011;6733;51.044;3.746;2024-02-23T01:27:29;4.23;;;1.57;;
13327;SDS011;6733;51.044;3.746;2024-02-23T01:29:55;4.77;;;1.80;;
13327;SDS011;6733;51.044;3.746;2024-02-23T01:32:21;5.07;;;1.60;;
13327;SDS011;6733;51.044;3.746;2024-02-23T01:34:47;4.23;;;1.33;;
13327;SDS011;6733;51.044;3.746;2024-02-23T01:37:13;4.47;;;1.50;;
13327;SDS011;6733;51.044;3.746;2024-02-23T01:39:39;6.97;;;1.43;;
13327;SDS011;6733;51.044;3.746;2024-02-23T01:42:05;5.37;;;1.40;;
13327;SDS011;6733;51.044;3.746;2024-02-23T01:44:31;3.57;;;1.23;;
13327;SDS011;6733;51.044;3.746;2024-02-23T01:46:57;3.50;;;1.57;;
13327;SDS011;6733;51.044;3.746;2024-02-23T01:49:23;3.33;;;1.20;;
13327;SDS011;6733;51.044;3.746;2024-02-23T01:51:55;4.80;;;1.63;;
13327;SDS011;6733;51.044;3.746;2024-02-23T01:54:22;5.43;;;1.87;;
13327;SDS011;6733;51.044;3.746;2024-02-23T01:56:49;5.23;;;1.43;;
13327;SDS011;6733;51.044;3.746;2024-02-23T01:59:15;4.60;;;1.50;;
13327;SDS011;6733;51.044;3.746;2024-02-23T02:01:42;4.03;;;1.50;;
13327;SDS011;6733;51.044;3.746;2024-02-23T02:04:09;5.63;;;1.60;;
13327;SDS011;6733;51.044;3.746;2024-02-23T02:06:35;4.90;;;1.37;;
13327;SDS011;6733;51.044;3.746;2024-02-23T02:09:01;6.37;;;2.57;;
13327;SDS011;6733;51.044;3.746;2024-02-23T02:11:28;6.60;;;1.77;;
13327;SDS011;6733;51.044;3.746;2024-02-23T02:13:54;5.13;;;1.60;;
13327;SDS011;6733;51.044;3.746;2024-02-23T02:16:20;5.73;;;1.80;;
13327;SDS011;6733;51.044;3.746;2024-02-23T02:18:45;5.27;;;1.73;;
13327;SDS011;6733;51.044;3.746;2024-02-23T02:21:12;2.63;;;1.23;;
13327;SDS011;6733;51.044;3.746;2024-02-23T02:23:38;5.87;;;1.80;;
13327;SDS011;6733;51.044;3.746;2024-02-23T02:26:04;6.30;;;1.60;;
13327;SDS011;6733;51.044;3.746;2024-02-23T02:28:30;3.17;;;1.50;;
13327;SDS011;6733;51.044;3.746;2024-02-23T02:30:57;5.60;;;1.83;;
13327;SDS011;6733;51.044;3.746;2024-02-23T02:33:22;5.60;;;1.70;;
13327;SDS011;6733;51.044;3.746;2024-02-23T02:36:13;6.60;;;1.90;;
13327;SDS011;6733;51.044;3.746;2024-02-23T02:39:04;7.30;;;1.87;;
13327;SDS011;6733;51.044;3.746;2024-02-23T02:41:57;4.33;;;1.47;;
13327;SDS011;6733;51.044;3.746;2024-02-23T02:44:48;6.90;;;1.80;;
13327;SDS011;6733;51.044;3.746;2024-02-23T02:47:39;6.33;;;1.73;;
13327;SDS011;6733;51.044;3.746;2024-02-23T02:50:30;5.63;;;1.83;;
13327;SDS011;6733;51.044;3.746;2024-02-23T02:53:22;6.10;;;1.80;;
13327;SDS011;6733;51.044;3.746;2024-02-23T02:56:13;5.33;;;1.80;;
13327;SDS011;6733;51.044;3.746;2024-02-23T02:59:04;7.13;;;2.07;;
13327;SDS011;6733;51.044;3.746;2024-02-23T03:01:30;6.80;;;2.20;;
13327;SDS011;6733;51.044;3.746;2024-02-23T03:03:57;5.77;;;2.00;;
13327;SDS011;6733;51.044;3.746;2024-02-23T03:06:22;6.67;;;1.80;;
13327;SDS011;6733;51.044;3.746;2024-02-23T03:08:48;5.83;;;1.73;;
13327;SDS011;6733;51.044;3.746;2024-02-23T03:11:14;5.17;;;1.83;;
13327;SDS011;6733;51.044;3.746;2024-02-23T03:13:40;5.63;;;1.90;;
13327;SDS011;6733;51.044;3.746;2024-02-23T03:16:06;5.27;;;1.80;;
13327;SDS011;6733;51.044;3.746;2024-02-23T03:18:31;5.60;;;1.70;;
13327;SDS011;6733;51.044;3.746;2024-02-23T03:20:57;4.57;;;1.50;;
13327;SDS011;6733;51.044;3.746;2024-02-23T03:23:23;6.57;;;1.87;;
13327;SDS011;6733;51.044;3.746;2024-02-23T03:25:49;6.70;;;1.90;;
13327;SDS011;6733;51.044;3.746;2024-02-23T03:28:15;5.20;;;1.77;;
13327;SDS011;6733;51.044;3.746;2024-02-23T03:30:42;7.47;;;2.03;;
13327;SDS011;6733;51.044;3.746;2024-02-23T03:33:08;4.63;;;1.77;;
13327;SDS011;6733;51.044;3.746;2024-02-23T03:35:34;6.40;;;1.60;;
13327;SDS011;6733;51.044;3.746;2024-02-23T03:38:00;5.60;;;2.00;;
13327;SDS011;6733;51.044;3.746;2024-02-23T03:40:27;6.40;;;1.60;;
13327;SDS011;6733;51.044;3.746;2024-02-23T03:42:53;7.33;;;1.70;;
13327;SDS011;6733;51.044;3.746;2024-02-23T03:45:19;6.10;;;1.80;;
13327;SDS011;6733;51.044;3.746;2024-02-23T03:47:45;7.70;;;1.40;;
13327;SDS011;6733;51.044;3.746;2024-02-23T03:50:12;5.23;;;1.70;;
13327;SDS011;6733;51.044;3.746;2024-02-23T03:52:38;5.43;;;1.40;;
13327;SDS011;6733;51.044;3.746;2024-02-23T03:55:05;3.63;;;1.60;;
13327;SDS011;6733;51.044;3.746;2024-02-23T03:57:31;4.13;;;1.53;;
13327;SDS011;6733;51.044;3.746;2024-02-23T03:59:57;6.33;;;1.80;;
13327;SDS011;6733;51.044;3.746;2024-02-23T04:02:23;6.53;;;1.70;;
13327;SDS011;6733;51.044;3.746;2024-02-23T04:04:49;3.50;;;1.60;;
13327;SDS011;6733;51.044;3.746;2024-02-23T04:07:15;8.40;;;1.97;;
13327;SDS011;6733;51.044;3.746;2024-02-23T04:09:41;5.70;;;1.80;;
13327;SDS011;6733;51.044;3.746;2024-02-23T04:12:07;5.33;;;1.67;;
13327;SDS011;6733;51.044;3.746;2024-02-23T04:14:33;3.67;;;1.50;;
13327;SDS011;6733;51.044;3.746;2024-02-23T04:17:02;4.13;;;1.63;;
13327;SDS011;6733;51.044;3.746;2024-02-23T04:19:29;5.77;;;1.90;;
13327;SDS011;6733;51.044;3.746;2024-02-23T04:21:55;5.23;;;1.83;;
13327;SDS011;6733;51.044;3.746;2024-02-23T04:24:21;6.13;;;1.80;;
13327;SDS011;6733;51.044;3.746;2024-02-23T04:26:47;5.47;;;1.73;;
13327;SDS011;6733;51.044;3.746;2024-02-23T04:29:13;5.43;;;1.63;;
13327;SDS011;6733;51.044;3.746;2024-02-23T04:31:40;4.93;;;1.73;;
13327;SDS011;6733;51.044;3.746;2024-02-23T04:34:06;7.43;;;1.80;;
13327;SDS011;6733;51.044;3.746;2024-02-23T04:36:32;7.33;;;1.67;;
13327;SDS011;6733;51.044;3.746;2024-02-23T04:38:58;4.40;;;1.67;;
13327;SDS011;6733;51.044;3.746;2024-02-23T04:41:24;7.57;;;2.10;;
13327;SDS011;6733;51.044;3.746;2024-02-23T04:43:50;7.47;;;2.30;;
13327;SDS011;6733;51.044;3.746;2024-02-23T04:46:17;5.40;;;1.73;;
13327;SDS011;6733;51.044;3.746;2024-02-23T04:48:43;6.63;;;1.67;;
13327;SDS011;6733;51.044;3.746;2024-02-23T04:51:09;8.53;;;2.20;;
13327;SDS011;6733;51.044;3.746;2024-02-23T04:53:38;7.97;;;2.13;;
13327;SDS011;6733;51.044;3.746;2024-02-23T04:56:04;5.77;;;1.83;;
13327;SDS011;6733;51.044;3.746;2024-02-23T04:58:30;6.07;;;2.20;;
13327;SDS011;6733;51.044;3.746;2024-02-23T05:00:56;9.67;;;2.17;;
13327;SDS011;6733;51.044;3.746;2024-02-23T05:03:22;5.80;;;1.90;;
13327;SDS011;6733;51.044;3.746;2024-02-23T05:05:48;6.40;;;2.00;;
13327;SDS011;6733;51.044;3.746;2024-02-23T05:08:19;5.43;;;2.00;;
13327;SDS011;6733;51.044;3.746;2024-02-23T05:10:46;8.43;;;1.80;;
13327;SDS011;6733;51.044;3.746;2024-02-23T05:13:13;5.63;;;1.97;;
13327;SDS011;6733;51.044;3.746;2024-02-23T05:15:39;7.30;;;2.03;;
13327;SDS011;6733;51.044;3.746;2024-02-23T05:18:05;9.10;;;2.47;;
13327;SDS011;6733;51.044;3.746;2024-02-23T05:20:31;8.17;;;1.90;;
13327;SDS011;6733;51.044;3.746;2024-02-23T05:22:57;5.57;;;1.90;;
13327;SDS011;6733;51.044;3.746;2024-02-23T05:25:23;5.90;;;1.87;;
13327;SDS011;6733;51.044;3.746;2024-02-23T05:27:53;7.90;;;2.10;;
13327;SDS011;6733;51.044;3.746;2024-02-23T05:30:19;7.90;;;2.20;;
13327;SDS011;6733;51.044;3.746;2024-02-23T05:32:46;5.03;;;2.20;;
13327;SDS011;6733;51.044;3.746;2024-02-23T05:35:13;7.17;;;2.27;;
13327;SDS011;6733;51.044;3.746;2024-02-23T05:37:40;8.13;;;2.20;;
13327;SDS011;6733;51.044;3.746;2024-02-23T05:40:06;6.97;;;2.10;;
13327;SDS011;6733;51.044;3.746;2024-02-23T05:42:38;5.83;;;2.33;;
13327;SDS011;6733;51.044;3.746;2024-02-23T05:45:06;9.13;;;2.20;;
13327;SDS011;6733;51.044;3.746;2024-02-23T05:47:35;5.97;;;2.00;;
13327;SDS011;6733;51.044;3.746;2024-02-23T05:50:02;8.27;;;2.17;;
13327;SDS011;6733;51.044;3.746;2024-02-23T05:52:32;5.63;;;1.90;;
13327;SDS011;6733;51.044;3.746;2024-02-23T05:54:59;7.07;;;2.10;;
13327;SDS011;6733;51.044;3.746;2024-02-23T05:57:26;6.97;;;1.90;;
13327;SDS011;6733;51.044;3.746;2024-02-23T05:59:52;8.73;;;2.20;;
13327;SDS011;6733;51.044;3.746;2024-02-23T06:02:18;8.00;;;2.37;;
13327;SDS011;6733;51.044;3.746;2024-02-23T06:04:44;5.20;;;2.10;;
13327;SDS011;6733;51.044;3.746;2024-02-23T06:07:10;7.53;;;2.00;;
13327;SDS011;6733;51.044;3.746;2024-02-23T06:09:36;6.97;;;2.23;;
13327;SDS011;6733;51.044;3.746;2024-02-23T06:12:03;12.83;;;2.57;;
13327;SDS011;6733;51.044;3.746;2024-02-23T06:14:30;7.60;;;2.23;;
13327;SDS011;6733;51.044;3.746;2024-02-23T06:16:56;6.03;;;2.50;;
13327;SDS011;6733;51.044;3.746;2024-02-23T06:19:22;7.83;;;2.20;;
13327;SDS011;6733;51.044;3.746;2024-02-23T06:21:48;11.20;;;2.53;;
13327;SDS011;6733;51.044;3.746;2024-02-23T06:24:14;8.57;;;2.40;;
13327;SDS011;6733;51.044;3.746;2024-02-23T06:26:41;8.60;;;2.53;;
13327;SDS011;6733;51.044;3.746;2024-02-23T06:29:07;9.47;;;2.30;;
13327;SDS011;6733;51.044;3.746;2024-02-23T06:31:38;8.90;;;2.40;;
13327;SDS011;6733;51.044;3.746;2024-02-23T06:34:05;6.23;;;2.23;;
13327;SDS011;6733;51.044;3.746;2024-02-23T06:36:30;5.27;;;2.00;;
13327;SDS011;6733;51.044;3.746;2024-02-23T06:38:56;6.43;;;2.53;;
13327;SDS011;6733;51.044;3.746;2024-02-23T06:41:22;6.07;;;2.00;;
13327;SDS011;6733;51.044;3.746;2024-02-23T06:43:48;5.70;;;1.73;;
13327;SDS011;6733;51.044;3.746;2024-02-23T06:46:14;6.73;;;2.33;;
13327;SDS011;6733;51.044;3.746;2024-02-23T06:48:40;6.23;;;2.10;;
13327;SDS011;6733;51.044;3.746;2024-02-23T06:51:06;6.73;;;2.20;;
13327;SDS011;6733;51.044;3.746;2024-02-23T06:53:34;9.17;;;2.30;;
13327;SDS011;6733;51.044;3.746;2024-02-23T06:56:00;7.27;;;1.80;;
13327;SDS011;6733;51.044;3.746;2024-02-23T06:58:27;7.37;;;1.87;;
13327;SDS011;6733;51.044;3.746;2024-02-23T07:00:53;8.00;;;2.27;;
13327;SDS011;6733;51.044;3.746;2024-02-23T07:03:20;6.27;;;2.20;;
13327;SDS011;6733;51.044;3.746;2024-02-23T07:05:45;7.87;;;1.97;;
13327;SDS011;6733;51.044;3.746;2024-02-23T07:08:12;9.73;;;2.40;;
13327;SDS011;6733;51.044;3.746;2024-02-23T07:10:38;7.83;;;2.20;;
13327;SDS011;6733;51.044;3.746;2024-02-23T07:13:07;6.57;;;2.20;;
13327;SDS011;6733;51.044;3.746;2024-02-23T07:15:34;7.20;;;2.10;;
13327;SDS011;6733;51.044;3.746;2024-02-23T07:18:01;7.47;;;2.20;;
13327;SDS011;6733;51.044;3.746;2024-02-23T07:20:27;6.50;;;1.87;;
13327;SDS011;6733;51.044;3.746;2024-02-23T07:22:53;6.53;;;1.97;;
13327;SDS011;6733;51.044;3.746;2024-02-23T07:25:19;6.77;;;1.97;;
13327;SDS011;6733;51.044;3.746;2024-02-23T07:27:48;7.47;;;1.83;;
13327;SDS011;6733;51.044;3.746;2024-02-23T07:30:14;8.07;;;2.17;;
13327;SDS011;6733;51.044;3.746;2024-02-23T07:32:41;4.37;;;1.70;;
13327;SDS011;6733;51.044;3.746;2024-02-23T07:35:08;6.63;;;1.80;;
13327;SDS011;6733;51.044;3.746;2024-02-23T07:37:36;7.37;;;1.90;;
13327;SDS011;6733;51.044;3.746;2024-02-23T07:40:03;4.73;;;2.10;;
13327;SDS011;6733;51.044;3.746;2024-02-23T07:42:30;8.63;;;2.07;;
13327;SDS011;6733;51.044;3.746;2024-02-23T07:44:57;6.40;;;1.93;;
13327;SDS011;6733;51.044;3.746;2024-02-23T07:47:23;6.37;;;1.80;;
13327;SDS011;6733;51.044;3.746;2024-02-23T07:49:52;7.00;;;2.20;;
13327;SDS011;6733;51.044;3.746;2024-02-23T07:52:18;6.90;;;2.00;;
13327;SDS011;6733;51.044;3.746;2024-02-23T07:54:45;5.80;;;1.77;;
13327;SDS011;6733;51.044;3.746;2024-02-23T07:57:11;6.90;;;1.80;;
13327;SDS011;6733;51.044;3.746;2024-02-23T07:59:39;5.43;;;2.10;;
13327;SDS011;6733;51.044;3.746;2024-02-23T08:02:05;5.97;;;1.60;;
13327;SDS011;6733;51.044;3.746;2024-02-23T08:04:31;6.90;;;2.00;;
13327;SDS011;6733;51.044;3.746;2024-02-23T08:06:57;6.60;;;1.83;;
13327;SDS011;6733;51.044;3.746;2024-02-23T08:09:23;7.67;;;2.17;;
13327;SDS011;6733;51.044;3.746;2024-02-23T08:11:50;7.00;;;1.80;;
13327;SDS011;6733;51.044;3.746;2024-02-23T08:14:16;8.17;;;2.23;;
13327;SDS011;6733;51.044;3.746;2024-02-23T08:16:43;7.07;;;1.73;;
13327;SDS011;6733;51.044;3.746;2024-02-23T08:19:09;5.17;;;1.77;;
13327;SDS011;6733;51.044;3.746;2024-02-23T08:21:35;5.73;;;2.10;;
13327;SDS011;6733;51.044;3.746;2024-02-23T08:24:01;10.00;;;2.63;;
13327;SDS011;6733;51.044;3.746;2024-02-23T08:26:28;6.47;;;1.70;;
13327;SDS011;6733;51.044;3.746;2024-02-23T08:28:54;7.33;;;1.90;;
13327;SDS011;6733;51.044;3.746;2024-02-23T08:31:20;3.87;;;1.50;;
13327;SDS011;6733;51.044;3.746;2024-02-23T08:33:46;3.60;;;1.40;;
13327;SDS011;6733;51.044;3.746;2024-02-23T08:36:12;3.47;;;1.57;;
13327;SDS011;6733;51.044;3.746;2024-02-23T08:38:38;4.70;;;1.70;;
13327;SDS011;6733;51.044;3.746;2024-02-23T08:41:04;5.73;;;1.70;;
13327;SDS011;6733;51.044;3.746;2024-02-23T08:43:30;6.57;;;1.90;;
13327;SDS011;6733;51.044;3.746;2024-02-23T08:45:56;5.47;;;1.70;;
13327;SDS011;6733;51.044;3.746;2024-02-23T08:48:22;6.40;;;1.90;;
13327;SDS011;6733;51.044;3.746;2024-02-23T08:50:48;3.63;;;1.60;;
13327;SDS011;6733;51.044;3.746;2024-02-23T08:53:14;5.67;;;1.70;;
13327;SDS011;6733;51.044;3.746;2024-02-23T08:55:40;5.90;;;1.73;;
13327;SDS011;6733;51.044;3.746;2024-02-23T08:58:06;8.83;;;1.87;;
13327;SDS011;6733;51.044;3.746;2024-02-23T09:00:33;8.63;;;2.03;;
13327;SDS011;6733;51.044;3.746;2024-02-23T09:02:59;4.30;;;1.70;;
13327;SDS011;6733;51.044;3.746;2024-02-23T09:05:25;5.03;;;1.80;;
13327;SDS011;6733;51.044;3.746;2024-02-23T09:07:51;5.47;;;1.60;;
13327;SDS011;6733;51.044;3.746;2024-02-23T09:10:18;6.20;;;1.67;;
13327;SDS011;6733;51.044;3.746;2024-02-23T09:12:45;5.63;;;1.67;;
13327;SDS011;6733;51.044;3.746;2024-02-23T09:15:11;3.53;;;1.50;;
13327;SDS011;6733;51.044;3.746;2024-02-23T09:17:37;6.23;;;1.83;;
13327;SDS011;6733;51.044;3.746;2024-02-23T09:20:05;9.83;;;2.30;;
13327;SDS011;6733;51.044;3.746;2024-02-23T09:22:32;6.50;;;1.80;;
13327;SDS011;6733;51.044;3.746;2024-02-23T09:24:58;5.27;;;1.90;;
13327;SDS011;6733;51.044;3.746;2024-02-23T09:27:25;6.77;;;2.10;;
13327;SDS011;6733;51.044;3.746;2024-02-23T09:29:51;4.80;;;2.00;;
13327;SDS011;6733;51.044;3.746;2024-02-23T09:32:17;5.50;;;1.80;;
13327;SDS011;6733;51.044;3.746;2024-02-23T09:34:43;4.67;;;1.40;;
13327;SDS011;6733;51.044;3.746;2024-02-23T09:37:10;4.13;;;1.80;;
13327;SDS011;6733;51.044;3.746;2024-02-23T09:39:36;9.70;;;2.20;;
13327;SDS011;6733;51.044;3.746;2024-02-23T09:42:02;3.93;;;1.40;;
13327;SDS011;6733;51.044;3.746;2024-02-23T09:44:32;5.30;;;1.50;;
13327;SDS011;6733;51.044;3.746;2024-02-23T09:47:00;3.77;;;1.50;;
13327;SDS011;6733;51.044;3.746;2024-02-23T09:49:35;4.07;;;1.30;;
13327;SDS011;6733;51.044;3.746;2024-02-23T09:52:05;4.30;;;1.30;;
13327;SDS011;6733;51.044;3.746;2024-02-23T09:54:33;5.10;;;1.70;;
13327;SDS011;6733;51.044;3.746;2024-02-23T09:57:00;4.27;;;1.33;;
13327;SDS011;6733;51.044;3.746;2024-02-23T09:59:29;4.03;;;1.43;;
13327;SDS011;6733;51.044;3.746;2024-02-23T10:01:56;3.43;;;1.53;;
13327;SDS011;6733;51.044;3.746;2024-02-23T10:04:22;4.70;;;1.50;;
13327;SDS011;6733;51.044;3.746;2024-02-23T10:06:51;4.93;;;1.50;;
13327;SDS011;6733;51.044;3.746;2024-02-23T10:09:16;5.47;;;2.20;;
13327;SDS011;6733;51.044;3.746;2024-02-23T10:11:42;8.07;;;1.50;;
13327;SDS011;6733;51.044;3.746;2024-02-23T10:14:09;5.50;;;1.47;;
13327;SDS011;6733;51.044;3.746;2024-02-23T10:16:34;5.67;;;1.43;;
13327;SDS011;6733;51.044;3.746;2024-02-23T10:19:00;5.90;;;1.67;;
13327;SDS011;6733;51.044;3.746;2024-02-23T10:21:26;8.93;;;1.77;;
13327;SDS011;6733;51.044;3.746;2024-02-23T10:23:52;4.97;;;1.43;;
13327;SDS011;6733;51.044;3.746;2024-02-23T10:26:18;6.10;;;2.13;;
13327;SDS011;6733;51.044;3.746;2024-02-23T10:28:46;4.57;;;1.50;;
13327;SDS011;6733;51.044;3.746;2024-02-23T10:31:13;7.00;;;1.70;;
13327;SDS011;6733;51.044;3.746;2024-02-23T10:33:39;12.30;;;2.07;;
13327;SDS011;6733;51.044;3.746;2024-02-23T10:36:06;4.70;;;1.40;;
13327;SDS011;6733;51.044;3.746;2024-02-23T10:38:36;7.70;;;1.80;;
13327;SDS011;6733;51.044;3.746;2024-02-23T10:41:06;5.80;;;1.90;;
13327;SDS011;6733;51.044;3.746;2024-02-23T10:43:46;4.77;;;1.50;;
13327;SDS011;6733;51.044;3.746;2024-02-23T10:46:13;6.63;;;1.80;;
13327;SDS011;6733;51.044;3.746;2024-02-23T10:48:41;4.77;;;1.80;;
13327;SDS011;6733;51.044;3.746;2024-02-23T10:51:08;4.70;;;1.60;;
13327;SDS011;6733;51.044;3.746;2024-02-23T10:53:38;6.70;;;1.87;;
13327;SDS011;6733;51.044;3.746;2024-02-23T10:56:06;6.23;;;1.60;;
13327;SDS011;6733;51.044;3.746;2024-02-23T10:58:32;4.40;;;1.70;;
13327;SDS011;6733;51.044;3.746;2024-02-23T11:01:00;5.93;;;2.00;;
13327;SDS011;6733;51.044;3.746;2024-02-23T11:03:29;4.97;;;1.57;;
13327;SDS011;6733;51.044;3.746;2024-02-23T11:05:56;5.80;;;1.90;;
13327;SDS011;6733;51.044;3.746;2024-02-23T11:08:22;5.63;;;1.90;;
13327;SDS011;6733;51.044;3.746;2024-02-23T11:10:49;4.67;;;1.60;;
13327;SDS011;6733;51.044;3.746;2024-02-23T11:13:18;6.90;;;1.87;;
13327;SDS011;6733;51.044;3.746;2024-02-23T11:15:44;6.23;;;1.50;;
13327;SDS011;6733;51.044;3.746;2024-02-23T11:18:22;4.63;;;1.50;;
13327;SDS011;6733;51.044;3.746;2024-02-23T11:20:55;3.77;;;1.23;;
13327;SDS011;6733;51.044;3.746;2024-02-23T11:23:24;5.03;;;1.43;;
13327;SDS011;6733;51.044;3.746;2024-02-23T11:28:29;3.77;;;1.50;;
13327;SDS011;6733;51.044;3.746;2024-02-23T11:30:57;6.63;;;1.83;;
13327;SDS011;6733;51.044;3.746;2024-02-23T11:33:34;4.00;;;1.60;;
13327;SDS011;6733;51.044;3.746;2024-02-23T11:36:07;3.67;;;1.47;;
13327;SDS011;6733;51.044;3.746;2024-02-23T11:38:34;6.77;;;1.60;;
13327;SDS011;6733;51.044;3.746;2024-02-23T11:41:00;4.23;;;1.53;;
13327;SDS011;6733;51.044;3.746;2024-02-23T11:43:28;5.90;;;1.77;;
13327;SDS011;6733;51.044;3.746;2024-02-23T11:45:54;2.83;;;1.80;;
13327;SDS011;6733;51.044;3.746;2024-02-23T11:48:20;3.90;;;1.63;;
13327;SDS011;6733;51.044;3.746;2024-02-23T11:50:49;4.03;;;1.47;;
13327;SDS011;6733;51.044;3.746;2024-02-23T11:53:15;4.43;;;1.43;;
13327;SDS011;6733;51.044;3.746;2024-02-23T11:55:42;4.00;;;1.30;;
13327;SDS011;6733;51.044;3.746;2024-02-23T11:58:08;6.07;;;1.80;;
13327;SDS011;6733;51.044;3.746;2024-02-23T12:00:34;2.27;;;1.50;;
13327;SDS011;6733;51.044;3.746;2024-02-23T12:03:00;2.03;;;1.10;;
13327;SDS011;6733;51.044;3.746;2024-02-23T12:05:26;3.77;;;1.80;;
13327;SDS011;6733;51.044;3.746;2024-02-23T12:07:53;4.40;;;1.30;;
13327;SDS011;6733;51.044;3.746;2024-02-23T12:10:20;3.67;;;1.17;;
13327;SDS011;6733;51.044;3.746;2024-02-23T12:12:46;7.53;;;1.40;;
13327;SDS011;6733;51.044;3.746;2024-02-23T12:15:15;3.70;;;1.90;;
13327;SDS011;6733;51.044;3.746;2024-02-23T12:17:47;4.73;;;1.70;;
13327;SDS011;6733;51.044;3.746;2024-02-23T12:20:17;8.30;;;1.70;;
13327;SDS011;6733;51.044;3.746;2024-02-23T12:22:43;4.77;;;1.53;;
13327;SDS011;6733;51.044;3.746;2024-02-23T12:25:09;6.07;;;1.50;;
13327;SDS011;6733;51.044;3.746;2024-02-23T12:27:39;8.30;;;1.90;;
13327;SDS011;6733;51.044;3.746;2024-02-23T12:30:05;4.67;;;1.60;;
13327;SDS011;6733;51.044;3.746;2024-02-23T12:32:38;2.40;;;1.07;;
13327;SDS011;6733;51.044;3.746;2024-02-23T12:35:04;2.90;;;1.30;;
13327;SDS011;6733;51.044;3.746;2024-02-23T12:37:34;1.50;;;0.57;;
13327;SDS011;6733;51.044;3.746;2024-02-23T12:40:03;2.72;;;0.70;;
13327;SDS011;6733;51.044;3.746;2024-02-23T12:42:34;1.73;;;0.90;;
13327;SDS011;6733;51.044;3.746;2024-02-23T12:45:03;3.85;;;0.95;;
13327;SDS011;6733;51.044;3.746;2024-02-23T12:47:29;1.97;;;0.90;;
13327;SDS011;6733;51.044;3.746;2024-02-23T12:49:54;2.97;;;1.10;;
13327;SDS011;6733;51.044;3.746;2024-02-23T12:52:20;1.45;;;0.95;;
13327;SDS011;6733;51.044;3.746;2024-02-23T12:54:46;4.03;;;0.97;;
13327;SDS011;6733;51.044;3.746;2024-02-23T12:57:15;5.55;;;1.40;;
13327;SDS011;6733;51.044;3.746;2024-02-23T12:59:41;3.70;;;1.05;;
13327;SDS011;6733;51.044;3.746;2024-02-23T13:02:06;2.50;;;0.97;;
13327;SDS011;6733;51.044;3.746;2024-02-23T13:04:34;8.43;;;1.10;;
13327;SDS011;6733;51.044;3.746;2024-02-23T13:07:00;3.55;;;1.25;;
13327;SDS011;6733;51.044;3.746;2024-02-23T13:09:26;6.30;;;1.10;;
13327;SDS011;6733;51.044;3.746;2024-02-23T13:11:53;2.97;;;1.30;;
13327;SDS011;6733;51.044;3.746;2024-02-23T13:14:21;4.37;;;1.40;;
13327;SDS011;6733;51.044;3.746;2024-02-23T13:16:49;4.23;;;1.10;;
13327;SDS011;6733;51.044;3.746;2024-02-23T13:19:15;3.60;;;1.30;;
13327;SDS011;6733;51.044;3.746;2024-02-23T13:21:41;4.27;;;1.23;;
13327;SDS011;6733;51.044;3.746;2024-02-23T13:24:07;6.53;;;1.40;;
13327;SDS011;6733;51.044;3.746;2024-02-23T13:26:33;4.17;;;1.57;;
13327;SDS011;6733;51.044;3.746;2024-02-23T13:28:59;4.95;;;1.60;;
13327;SDS011;6733;51.044;3.746;2024-02-23T13:31:28;5.00;;;1.50;;
13327;SDS011;6733;51.044;3.746;2024-02-23T13:33:54;4.47;;;1.30;;
13327;SDS011;6733;51.044;3.746;2024-02-23T13:36:20;2.72;;;0.93;;
13327;SDS011;6733;51.044;3.746;2024-02-23T13:38:47;3.20;;;1.00;;
13327;SDS011;6733;51.044;3.746;2024-02-23T13:41:13;6.27;;;1.07;;
13327;SDS011;6733;51.044;3.746;2024-02-23T13:43:39;7.23;;;1.10;;
13327;SDS011;6733;51.044;3.746;2024-02-23T13:46:05;3.03;;;0.70;;
13327;SDS011;6733;51.044;3.746;2024-02-23T13:48:32;4.70;;;0.98;;
13327;SDS011;6733;51.044;3.746;2024-02-23T13:50:58;5.43;;;1.10;;
13327;SDS011;6733;51.044;3.746;2024-02-23T13:53:29;2.17;;;1.00;;
13327;SDS011;6733;51.044;3.746;2024-02-23T13:55:56;3.42;;;1.20;;
13327;SDS011;6733;51.044;3.746;2024-02-23T13:58:22;2.97;;;0.90;;
13327;SDS011;6733;51.044;3.746;2024-02-23T14:00:49;2.63;;;1.48;;
13327;SDS011;6733;51.044;3.746;2024-02-23T14:03:18;4.50;;;0.90;;
13327;SDS011;6733;51.044;3.746;2024-02-23T14:05:44;2.17;;;0.80;;
13327;SDS011;6733;51.044;3.746;2024-02-23T14:08:11;2.83;;;1.05;;
13327;SDS011;6733;51.044;3.746;2024-02-23T14:10:37;5.68;;;1.13;;
13327;SDS011;6733;51.044;3.746;2024-02-23T14:13:05;2.33;;;0.98;;
13327;SDS011;6733;51.044;3.746;2024-02-23T14:15:32;6.30;;;1.25;;
13327;SDS011;6733;51.044;3.746;2024-02-23T14:17:58;4.47;;;1.17;;
13327;SDS011;6733;51.044;3.746;2024-02-23T14:20:24;2.33;;;1.08;;
13327;SDS011;6733;51.044;3.746;2024-02-23T14:22:50;3.75;;;1.00;;
13327;SDS011;6733;51.044;3.746;2024-02-23T14:25:18;3.83;;;1.10;;
13327;SDS011;6733;51.044;3.746;2024-02-23T14:27:44;5.45;;;1.33;;
13327;SDS011;6733;51.044;3.746;2024-02-23T14:30:10;3.80;;;1.13;;
13327;SDS011;6733;51.044;3.746;2024-02-23T14:32:36;5.03;;;1.27;;
13327;SDS011;6733;51.044;3.746;2024-02-23T14:35:03;4.43;;;0.97;;
13327;SDS011;6733;51.044;3.746;2024-02-23T14:37:29;2.63;;;0.77;;
13327;SDS011;6733;51.044;3.746;2024-02-23T14:39:55;1.50;;;0.60;;
13327;SDS011;6733;51.044;3.746;2024-02-23T14:42:21;2.27;;;0.83;;
13327;SDS011;6733;51.044;3.746;2024-02-23T14:44:47;1.37;;;0.60;;
13327;SDS011;6733;51.044;3.746;2024-02-23T14:47:15;1.37;;;0.40;;
13327;SDS011;6733;51.044;3.746;2024-02-23T14:49:42;2.40;;;0.67;;
13327;SDS011;6733;51.044;3.746;2024-02-23T14:52:08;1.73;;;1.00;;
13327;SDS011;6733;51.044;3.746;2024-02-23T14:54:34;1.17;;;0.83;;
13327;SDS011;6733;51.044;3.746;2024-02-23T14:57:01;1.40;;;0.60;;
13327;SDS011;6733;51.044;3.746;2024-02-23T14:59:27;0.40;;;0.40;;
13327;SDS011;6733;51.044;3.746;2024-02-23T15:01:53;2.75;;;0.50;;
13327;SDS011;6733;51.044;3.746;2024-02-23T15:04:19;1.10;;;0.50;;